createdAt,value
2022-09-01T00:00:17.599Z,9.678241
2022-09-01T00:05:17.867Z,9.643519
2022-09-01T00:10:17.838Z,9.402778
2022-09-01T00:15:17.685Z,9.460648
2022-09-01T00:20:20.495Z,9.474537
2022-09-01T00:25:17.816Z,9.372685
2022-09-01T00:30:17.826Z,9.266204
2022-09-01T00:35:18.202Z,9.254630
2022-09-01T00:40:17.857Z,9.266204
2022-09-01T00:45:17.640Z,9.259259
2022-09-01T00:50:17.666Z,9.252315
2022-09-01T00:55:17.933Z,9.171296
2022-09-01T01:00:17.553Z,9.030093
2022-09-01T01:05:17.622Z,8.854167
2022-09-01T01:10:17.685Z,8.750000
2022-09-01T01:15:17.650Z,8.557870
2022-09-01T01:20:17.630Z,8.488426
2022-09-01T01:25:17.602Z,8.386574
2022-09-01T01:30:17.663Z,8.261574
2022-09-01T01:35:17.661Z,8.250000
2022-09-01T01:40:17.862Z,8.125000
2022-09-01T01:45:17.759Z,8.006944
2022-09-01T01:50:17.595Z,8.085648
2022-09-01T01:55:17.826Z,8.037037
2022-09-01T02:00:17.563Z,8.136574
2022-09-01T02:05:17.567Z,8.113426
2022-09-01T02:10:17.720Z,8.104167
2022-09-01T02:15:17.630Z,8.145833
2022-09-01T02:20:17.628Z,8.120370
2022-09-01T02:25:17.628Z,7.997685
2022-09-01T02:30:17.620Z,7.821759
2022-09-01T02:35:17.562Z,7.706019
2022-09-01T02:40:17.908Z,7.613426
2022-09-01T02:45:17.840Z,7.636574
2022-09-01T02:50:17.889Z,7.696759
2022-09-01T02:55:17.730Z,7.564815
2022-09-01T03:00:17.743Z,7.541667
2022-09-01T03:05:17.592Z,7.525463
2022-09-01T03:10:17.790Z,7.601852
2022-09-01T03:15:17.662Z,7.553241
2022-09-01T03:20:17.599Z,7.555556
2022-09-01T03:25:17.558Z,7.476852
2022-09-01T03:30:17.524Z,7.347222
2022-09-01T03:35:17.664Z,7.266204
2022-09-01T03:40:17.710Z,7.291667
2022-09-01T03:45:17.639Z,7.293981
2022-09-01T03:50:17.573Z,7.342593
2022-09-01T03:55:17.879Z,7.368056
2022-09-01T04:00:17.647Z,7.358796
2022-09-01T04:05:17.642Z,7.178241
2022-09-01T04:10:17.556Z,7.178241
2022-09-01T04:15:17.620Z,7.069444
2022-09-01T04:20:17.573Z,6.937500
2022-09-01T04:25:17.567Z,6.914352
2022-09-01T04:30:17.523Z,7.113426
2022-09-01T04:35:17.798Z,7.222222
2022-09-01T04:40:17.908Z,7.342593
2022-09-01T04:45:20.683Z,7.493056
2022-09-01T04:50:18.061Z,7.671296
2022-09-01T04:55:18.173Z,7.819444
2022-09-01T05:00:17.785Z,7.759259
2022-09-01T05:05:17.575Z,7.881944
2022-09-01T05:10:17.598Z,8.199074
2022-09-01T05:15:17.768Z,8.472222
2022-09-01T05:20:17.898Z,8.585648
2022-09-01T05:25:18.067Z,8.740741
2022-09-01T05:30:17.596Z,8.979167
2022-09-01T05:35:17.811Z,9.293981
2022-09-01T05:40:17.633Z,9.590278
2022-09-01T05:45:17.506Z,9.743056
2022-09-01T05:50:17.943Z,9.905093
2022-09-01T05:55:17.856Z,9.990741
2022-09-01T06:00:17.575Z,10.069444
2022-09-01T06:05:17.487Z,10.055556
2022-09-01T06:10:17.539Z,10.085648
2022-09-01T06:15:17.683Z,10.298611
2022-09-01T06:20:17.495Z,10.439815
2022-09-01T06:25:17.595Z,10.539352
2022-09-01T06:30:23.184Z,10.625000
2022-09-01T06:35:17.502Z,10.810185
2022-09-01T06:40:17.637Z,11.187500
2022-09-01T06:45:17.542Z,11.620370
2022-09-01T06:51:15.000Z,12.125000
2022-09-01T06:55:17.742Z,12.750000
2022-09-01T07:00:18.742Z,13.125000
2022-09-01T07:06:09.640Z,13.409722
2022-09-01T07:10:21.296Z,13.858796
2022-09-01T07:16:33.305Z,14.136574
2022-09-01T07:20:25.293Z,14.583333
2022-09-01T07:25:17.525Z,15.071759
2022-09-01T07:30:17.469Z,15.458333
2022-09-01T07:35:17.565Z,15.731481
2022-09-01T07:45:32.886Z,15.851852
2022-09-01T07:50:38.765Z,16.152778
2022-09-01T07:55:17.845Z,16.291667
2022-09-01T08:00:17.941Z,16.793981
2022-09-01T08:05:17.551Z,17.180556
2022-09-01T08:10:20.199Z,17.479167
2022-09-01T08:16:08.645Z,17.534722
2022-09-01T08:20:17.464Z,17.388889
2022-09-01T08:25:20.711Z,17.546296
2022-09-01T08:30:17.562Z,17.849537
2022-09-01T08:35:17.524Z,18.180556
2022-09-01T08:40:17.682Z,18.569444
2022-09-01T08:45:17.531Z,18.997685
2022-09-01T08:50:17.492Z,19.370370
2022-09-01T08:55:17.775Z,19.048611
2022-09-01T09:00:17.517Z,19.136574
2022-09-01T09:05:17.764Z,18.807870
2022-09-01T09:10:17.534Z,19.090278
2022-09-01T09:15:17.543Z,19.175926
2022-09-01T09:20:17.475Z,19.009259
2022-09-01T09:25:19.250Z,18.738426
2022-09-01T09:30:17.687Z,18.761574
2022-09-01T09:35:18.130Z,19.138889
2022-09-01T09:40:18.198Z,19.993056
2022-09-01T09:45:17.690Z,19.942130
2022-09-01T09:50:17.469Z,20.182870
2022-09-01T09:55:17.835Z,20.125000
2022-09-01T10:00:17.491Z,19.754630
2022-09-01T10:05:17.581Z,19.831019
2022-09-01T10:10:17.429Z,19.967593
2022-09-01T10:15:17.601Z,19.983796
2022-09-01T10:20:17.473Z,19.930556
2022-09-01T10:25:17.485Z,19.768519
2022-09-01T10:30:20.104Z,20.298611
2022-09-01T10:35:18.268Z,21.106481
2022-09-01T10:40:25.984Z,21.312500
2022-09-01T10:45:17.584Z,20.805556
2022-09-01T10:50:17.537Z,20.821759
2022-09-01T10:55:24.807Z,20.972222
2022-09-01T11:01:47.876Z,21.448889
2022-09-01T11:05:17.562Z,22.076389
2022-09-01T11:10:34.011Z,21.655093
2022-09-01T11:15:17.485Z,21.622685
2022-09-01T11:20:18.139Z,20.233796
2022-09-01T11:25:17.566Z,19.796296
2022-09-01T11:30:17.414Z,19.671296
2022-09-01T11:35:17.619Z,19.756944
2022-09-01T11:40:17.594Z,20.025463
2022-09-01T11:45:21.791Z,20.625000
2022-09-01T11:50:18.001Z,21.062500
2022-09-01T11:55:18.379Z,20.875556
2022-09-01T12:00:17.609Z,20.787037
2022-09-01T12:05:17.349Z,21.057870
2022-09-01T12:10:17.455Z,20.543981
2022-09-01T12:15:18.851Z,20.229167
2022-09-01T12:20:17.507Z,20.280093
2022-09-01T12:25:17.375Z,20.506944
2022-09-01T12:30:17.668Z,21.141204
2022-09-01T12:35:17.678Z,20.576389
2022-09-01T12:40:17.460Z,21.164352
2022-09-01T12:45:17.450Z,22.196759
2022-09-01T12:50:17.397Z,21.590278
2022-09-01T12:55:52.748Z,20.789352
2022-09-01T13:00:17.671Z,21.817130
2022-09-01T13:05:17.630Z,22.543981
2022-09-01T13:10:17.427Z,22.803241
2022-09-01T13:15:17.584Z,22.907407
2022-09-01T13:20:17.552Z,22.615741
2022-09-01T13:25:17.474Z,22.104167
2022-09-01T13:30:17.451Z,21.282407
2022-09-01T13:35:17.417Z,20.944444
2022-09-01T13:40:17.395Z,20.951389
2022-09-01T13:45:17.529Z,21.208333
2022-09-01T13:50:21.704Z,21.409722
2022-09-01T13:55:17.770Z,20.759259
2022-09-01T14:00:17.413Z,20.388889
2022-09-01T14:05:17.616Z,20.145833
2022-09-01T14:10:17.600Z,19.935185
2022-09-01T14:15:20.605Z,19.877315
2022-09-01T14:20:17.610Z,19.842593
2022-09-01T14:25:17.539Z,19.855556
2022-09-01T14:30:17.442Z,19.858796
2022-09-01T14:35:17.810Z,19.923611
2022-09-01T14:40:17.372Z,19.960648
2022-09-01T14:45:17.722Z,20.025463
2022-09-01T14:50:21.619Z,20.004630
2022-09-01T14:55:17.635Z,20.055556
2022-09-01T15:00:17.402Z,20.027778
2022-09-01T15:05:17.373Z,19.983796
2022-09-01T15:10:24.551Z,19.879630
2022-09-01T15:15:17.450Z,19.712963
2022-09-01T15:20:17.348Z,19.516204
2022-09-01T15:25:17.364Z,19.335648
2022-09-01T15:30:17.408Z,19.108796
2022-09-01T15:35:17.411Z,18.946759
2022-09-01T15:40:17.399Z,18.780093
2022-09-01T15:45:17.409Z,18.587963
2022-09-01T15:50:21.549Z,18.835648
2022-09-01T15:55:17.514Z,18.932870
2022-09-01T16:00:17.363Z,18.881944
2022-09-01T16:05:17.342Z,19.018519
2022-09-01T16:10:17.715Z,19.303241
2022-09-01T16:15:17.464Z,19.476852
2022-09-01T16:20:17.416Z,19.467593
2022-09-01T16:25:17.679Z,19.365741
2022-09-01T16:30:17.723Z,19.307870
2022-09-01T16:35:17.576Z,19.224537
2022-09-01T16:40:17.584Z,19.069444
2022-09-01T16:45:17.369Z,18.888889
2022-09-01T16:50:17.346Z,18.740741
2022-09-01T16:55:18.011Z,18.636574
2022-09-01T17:00:17.306Z,18.412037
2022-09-01T17:05:17.301Z,17.988889
2022-09-01T17:10:17.267Z,17.682870
2022-09-01T17:15:17.353Z,17.541667
2022-09-01T17:20:17.344Z,17.270833
2022-09-01T17:25:19.312Z,17.027778
2022-09-01T17:30:17.406Z,16.724537
2022-09-01T17:35:17.383Z,16.518519
2022-09-01T17:40:17.376Z,16.159722
2022-09-01T17:45:17.598Z,15.733796
2022-09-01T17:50:17.449Z,15.282407
2022-09-01T17:55:17.602Z,14.784722
2022-09-01T18:00:17.363Z,14.192130
2022-09-01T18:05:17.374Z,13.740741
2022-09-01T18:10:17.330Z,13.504630
2022-09-01T18:15:17.366Z,13.358796
2022-09-01T18:20:17.302Z,13.062500
2022-09-01T18:25:17.509Z,12.738426
2022-09-01T18:30:26.300Z,12.291667
2022-09-01T18:35:17.426Z,11.833333
2022-09-01T18:40:17.472Z,11.493056
2022-09-01T18:45:17.539Z,11.266204
2022-09-01T18:50:17.315Z,11.111111
2022-09-01T18:55:17.647Z,10.969907
2022-09-01T19:00:18.672Z,10.849537
2022-09-01T19:05:17.580Z,10.687500
2022-09-01T19:10:18.491Z,10.601852
2022-09-01T19:15:17.328Z,10.476852
2022-09-01T19:20:17.374Z,10.266204
2022-09-01T19:25:17.601Z,10.129630
2022-09-01T19:30:17.395Z,10.067130
2022-09-01T19:35:17.454Z,9.967593
2022-09-01T19:40:18.127Z,9.819444
2022-09-01T19:45:17.321Z,9.738426
2022-09-01T19:50:17.314Z,9.643519
2022-09-01T19:55:17.471Z,9.448889
2022-09-01T20:00:17.457Z,9.361111
2022-09-01T20:05:17.290Z,9.280093
2022-09-01T20:10:17.320Z,9.236111
2022-09-01T20:15:17.275Z,9.231481
2022-09-01T20:20:17.305Z,9.187500
2022-09-01T20:25:17.325Z,9.006944
2022-09-01T20:30:17.270Z,8.868056
2022-09-01T20:35:17.485Z,8.655093
2022-09-01T20:40:18.152Z,8.546296
2022-09-01T20:45:17.381Z,8.449074
2022-09-01T20:50:17.457Z,8.407407
2022-09-01T20:55:17.749Z,8.365741
2022-09-01T21:00:17.320Z,8.263889
2022-09-01T21:05:17.214Z,8.129630
2022-09-01T21:10:17.493Z,8.013889
2022-09-01T21:15:17.272Z,8.085648
2022-09-01T21:20:17.283Z,8.034722
2022-09-01T21:25:17.303Z,7.868056
2022-09-01T21:30:17.379Z,7.837963
2022-09-01T21:35:17.371Z,7.717593
2022-09-01T21:40:17.365Z,7.655093
2022-09-01T21:45:17.260Z,7.606481
2022-09-01T21:50:17.220Z,7.509259
2022-09-01T21:55:22.533Z,7.458333
2022-09-01T22:00:17.319Z,7.418981
2022-09-01T22:05:17.509Z,7.326389
2022-09-01T22:10:17.233Z,7.282222
2022-09-01T22:15:17.365Z,7.231481
2022-09-01T22:20:17.248Z,7.173611
2022-09-01T22:25:17.276Z,7.171296
2022-09-01T22:30:17.278Z,7.037037
2022-09-01T22:35:17.199Z,7.076389
2022-09-01T22:40:17.318Z,7.046296
2022-09-01T22:45:17.326Z,6.877315
2022-09-01T22:50:17.292Z,6.837963
2022-09-01T22:55:17.749Z,6.907407
2022-09-01T23:00:17.764Z,6.905093
2022-09-01T23:05:17.204Z,6.731481
2022-09-01T23:10:17.186Z,6.740741
2022-09-01T23:15:17.268Z,6.759259
2022-09-01T23:20:17.245Z,6.731481
2022-09-01T23:25:17.223Z,6.789352
2022-09-01T23:30:17.321Z,6.694444
2022-09-01T23:35:17.204Z,6.673611
2022-09-01T23:40:17.297Z,6.581019
2022-09-01T23:45:17.298Z,6.550926
2022-09-01T23:50:17.154Z,6.497685
2022-09-01T23:55:17.432Z,6.351852
